createdAt,value
2023-04-18T00:02:38.802Z,31.75
2023-04-18T00:05:42.300Z,35.25
2023-04-18T00:08:44.858Z,33.25
2023-04-18T00:11:47.614Z,35.75
2023-04-18T00:14:52.934Z,33.00
2023-04-18T00:17:57.102Z,32.75
2023-04-18T00:20:59.682Z,32.25
2023-04-18T00:24:02.463Z,30.00
2023-04-18T00:27:04.916Z,36.75
2023-04-18T00:30:09.069Z,36.50
2023-04-18T00:33:13.120Z,38.75
2023-04-18T00:36:15.937Z,39.75
2023-04-18T00:39:18.444Z,31.50
2023-04-18T00:42:22.280Z,31.25
2023-04-18T00:45:24.705Z,37.50
2023-04-18T00:48:27.922Z,40.00
2023-04-18T00:51:30.794Z,27.00
2023-04-18T00:54:33.622Z,32.25
2023-04-18T00:57:36.419Z,40.25
2023-04-18T01:00:39.197Z,25.75
2023-04-18T01:03:41.787Z,36.25
2023-04-18T01:06:45.792Z,34.75
2023-04-18T01:09:48.422Z,30.75
2023-04-18T01:12:51.159Z,34.75
2023-04-18T01:15:55.277Z,35.25
2023-04-18T01:18:58.314Z,36.00
2023-04-18T01:22:00.915Z,37.25
2023-04-18T01:25:08.426Z,45.75
2023-04-18T01:28:12.438Z,43.00
2023-04-18T01:31:15.221Z,41.00
2023-04-18T01:34:20.988Z,34.50
2023-04-18T01:37:23.990Z,33.50
2023-04-18T01:40:26.597Z,31.50
2023-04-18T01:43:29.726Z,30.25
2023-04-18T01:46:32.238Z,40.50
2023-04-18T01:49:37.155Z,34.25
2023-04-18T01:52:39.454Z,41.00
2023-04-18T01:55:42.175Z,40.50
2023-04-18T01:58:44.517Z,41.50
2023-04-18T02:01:48.521Z,40.25
2023-04-18T02:04:51.054Z,34.25
2023-04-18T02:07:54.049Z,38.75
2023-04-18T02:10:56.335Z,37.75
2023-04-18T02:13:59.906Z,40.50
2023-04-18T02:17:02.381Z,36.50
2023-04-18T02:20:05.699Z,34.75
2023-04-18T02:23:10.163Z,37.75
2023-04-18T02:26:12.987Z,37.50
2023-04-18T02:29:15.488Z,41.25
2023-04-18T02:32:18.368Z,41.25
2023-04-18T02:35:21.770Z,33.25
2023-04-18T02:38:24.575Z,35.00
2023-04-18T02:41:27.837Z,32.25
2023-04-18T02:44:30.573Z,32.75
2023-04-18T02:47:37.719Z,42.50
2023-04-18T02:50:52.860Z,38.75
2023-04-18T02:53:55.915Z,40.75
2023-04-18T02:57:01.500Z,35.25
2023-04-18T03:00:17.265Z,28.50
2023-04-18T03:03:38.571Z,34.75
2023-04-18T03:07:01.157Z,30.50
2023-04-18T03:10:07.852Z,31.75
2023-04-18T03:13:12.622Z,34.00
2023-04-18T03:16:16.075Z,32.50
2023-04-18T03:19:19.102Z,32.50
2023-04-18T03:22:21.977Z,36.75
2023-04-18T03:25:31.147Z,32.25
2023-04-18T03:28:34.807Z,30.75
2023-04-18T03:31:37.266Z,33.25
2023-04-18T03:34:40.063Z,34.75
2023-04-18T03:37:44.261Z,33.50
2023-04-18T03:40:52.472Z,37.50
2023-04-18T03:44:01.034Z,37.00
2023-04-18T03:47:04.191Z,38.25
2023-04-18T03:50:09.726Z,32.00
2023-04-18T03:53:12.759Z,38.25
2023-04-18T03:56:15.121Z,40.75
2023-04-18T03:59:30.231Z,31.75
2023-04-18T04:02:32.858Z,36.25
2023-04-18T04:05:36.043Z,39.75
2023-04-18T04:08:38.416Z,33.75
2023-04-18T04:11:41.566Z,36.50
2023-04-18T04:14:46.812Z,28.50
2023-04-18T04:17:51.004Z,38.75
2023-04-18T04:20:54.001Z,34.25
2023-04-18T04:24:13.908Z,33.25
2023-04-18T04:27:20.777Z,31.25
2023-04-18T04:30:23.697Z,33.25
2023-04-18T04:33:28.837Z,28.50
2023-04-18T04:36:35.924Z,39.50
2023-04-18T04:39:41.359Z,31.50
2023-04-18T04:43:16.652Z,32.00
2023-04-18T04:46:23.349Z,29.75
2023-04-18T04:49:26.240Z,33.75
2023-04-18T04:52:28.513Z,32.25
2023-04-18T04:55:32.928Z,36.25
2023-04-18T04:58:36.907Z,40.75
2023-04-18T05:02:01.840Z,36.00
2023-04-18T05:05:23.212Z,41.00
2023-04-18T05:08:26.455Z,36.50
2023-04-18T05:11:28.817Z,28.75
2023-04-18T05:14:31.642Z,36.25
2023-04-18T05:17:33.990Z,33.75
2023-04-18T05:20:36.903Z,36.25
2023-04-18T05:23:40.373Z,37.75
2023-04-18T05:26:43.688Z,37.00
2023-04-18T05:29:47.770Z,47.00
2023-04-18T05:32:50.607Z,32.00
2023-04-18T05:35:53.120Z,42.50
2023-04-18T05:38:55.771Z,35.50
2023-04-18T05:41:58.617Z,30.50
2023-04-18T05:45:01.375Z,39.75
2023-04-18T05:48:04.095Z,39.50
2023-04-18T05:51:06.741Z,39.75
2023-04-18T05:54:09.107Z,38.25
2023-04-18T05:57:12.281Z,31.25
2023-04-18T06:00:15.360Z,36.50
2023-04-18T06:03:18.317Z,42.25
2023-04-18T06:06:21.092Z,36.50
2023-04-18T06:09:24.117Z,38.50
2023-04-18T06:12:26.537Z,35.50
2023-04-18T06:15:29.392Z,33.00
2023-04-18T06:18:31.752Z,36.00
2023-04-18T06:21:34.668Z,38.75
2023-04-18T06:24:37.683Z,38.75
2023-04-18T06:27:40.394Z,35.25
2023-04-18T06:30:42.920Z,37.25
2023-04-18T06:33:45.674Z,31.00
2023-04-18T06:36:48.142Z,31.75
2023-04-18T06:39:50.912Z,42.50
2023-04-18T06:42:53.403Z,33.00
2023-04-18T06:45:56.892Z,33.00
2023-04-18T06:48:59.474Z,40.00
2023-04-18T06:52:02.256Z,49.00
2023-04-18T06:55:04.940Z,35.25
2023-04-18T06:58:08.734Z,35.75
2023-04-18T07:01:11.054Z,35.25
2023-04-18T07:04:14.346Z,39.75
2023-04-18T07:07:17.068Z,41.25
2023-04-18T07:10:19.874Z,39.00
2023-04-18T07:13:22.243Z,31.25
2023-04-18T07:16:25.066Z,36.50
2023-04-18T07:19:27.419Z,44.50
2023-04-18T07:22:30.118Z,41.25
2023-04-18T07:25:32.553Z,44.50
2023-04-18T07:28:35.494Z,33.00
2023-04-18T07:31:37.870Z,41.75
2023-04-18T07:34:40.570Z,44.25
2023-04-18T07:37:42.875Z,37.75
2023-04-18T07:40:46.016Z,37.50
2023-04-18T07:43:48.316Z,37.50
2023-04-18T07:46:52.102Z,36.50
2023-04-18T07:49:54.931Z,33.25
2023-04-18T07:52:57.602Z,34.75
2023-04-18T07:56:00.090Z,32.75
2023-04-18T07:59:02.903Z,38.25
2023-04-18T08:02:05.332Z,36.75
2023-04-18T08:05:09.096Z,26.50
2023-04-18T08:08:12.408Z,37.75
2023-04-18T08:11:15.225Z,33.00
2023-04-18T08:14:17.775Z,34.50
2023-04-18T08:17:20.753Z,32.25
2023-04-18T08:20:23.410Z,34.75
2023-04-18T08:23:26.292Z,37.25
2023-04-18T08:26:28.676Z,34.00
2023-04-18T08:29:33.255Z,37.50
2023-04-18T08:32:36.809Z,33.25
2023-04-18T08:35:39.438Z,32.50
2023-04-18T08:38:41.759Z,35.50
2023-04-18T08:41:46.411Z,30.75
2023-04-18T08:44:48.962Z,29.75
2023-04-18T08:47:52.695Z,34.50
2023-04-18T08:50:59.219Z,33.00
2023-04-18T08:54:04.734Z,33.50
2023-04-18T08:57:09.001Z,30.00
2023-04-18T09:00:12.247Z,32.00
2023-04-18T09:03:15.792Z,34.00
2023-04-18T09:06:20.629Z,37.75
2023-04-18T09:09:27.685Z,35.25
2023-04-18T09:12:30.591Z,37.50
2023-04-18T09:15:32.987Z,34.00
2023-04-18T09:18:35.693Z,34.00
2023-04-18T09:21:44.652Z,31.25
2023-04-18T09:24:57.485Z,35.50
2023-04-18T09:28:02.069Z,39.50
2023-04-18T09:31:12.093Z,31.00
2023-04-18T09:34:25.146Z,37.50
2023-04-18T09:37:29.275Z,31.50
2023-04-18T09:40:32.531Z,32.25
2023-04-18T09:43:35.296Z,26.25
2023-04-18T09:46:37.786Z,32.50
2023-04-18T09:49:40.800Z,30.50
2023-04-18T09:52:44.806Z,30.75
2023-04-18T09:55:53.984Z,30.00
2023-04-18T09:59:06.041Z,29.50
2023-04-18T10:02:16.668Z,32.25
2023-04-18T10:05:21.519Z,29.50
2023-04-18T10:08:24.403Z,26.75
2023-04-18T10:11:27.221Z,32.25
2023-04-18T10:14:30.710Z,31.25
2023-04-18T10:17:56.227Z,31.50
2023-04-18T10:21:04.419Z,34.75
2023-04-18T10:24:07.645Z,36.00
2023-04-18T10:27:10.295Z,31.75
2023-04-18T10:30:12.970Z,31.50
2023-04-18T10:33:33.873Z,24.25
2023-04-18T10:36:36.614Z,29.25
2023-04-18T10:40:05.868Z,29.50
2023-04-18T10:43:08.266Z,29.00
2023-04-18T10:46:20.467Z,26.00
2023-04-18T10:49:34.009Z,31.50
2023-04-18T10:52:36.806Z,28.25
2023-04-18T10:55:42.330Z,27.25
2023-04-18T10:58:51.475Z,27.50
2023-04-18T11:01:58.111Z,26.25
2023-04-18T11:05:07.294Z,27.00
2023-04-18T11:08:23.842Z,22.00
2023-04-18T11:11:26.594Z,22.50
2023-04-18T11:14:42.913Z,25.00
2023-04-18T11:17:45.729Z,24.50
2023-04-18T11:20:50.771Z,25.00
2023-04-18T11:23:55.115Z,24.00
2023-04-18T11:26:58.028Z,23.00
2023-04-18T11:30:01.078Z,25.75
2023-04-18T11:33:11.517Z,23.75
2023-04-18T11:36:14.791Z,23.50
2023-04-18T11:39:17.688Z,24.25
2023-04-18T11:42:20.871Z,20.25
2023-04-18T11:45:23.280Z,23.50
2023-04-18T11:48:46.895Z,24.00
2023-04-18T11:51:49.267Z,20.00
2023-04-18T11:54:52.203Z,24.00
2023-04-18T11:57:59.285Z,23.50
2023-04-18T12:01:22.498Z,24.00
2023-04-18T12:04:24.987Z,20.50
2023-04-18T12:07:42.357Z,19.75
2023-04-18T12:10:50.731Z,16.50
2023-04-18T12:13:56.563Z,18.50
2023-04-18T12:16:58.937Z,20.50
2023-04-18T12:20:05.523Z,20.50
2023-04-18T12:23:08.495Z,20.50
2023-04-18T12:26:18.533Z,16.50
2023-04-18T12:29:21.118Z,15.25
2023-04-18T12:32:23.869Z,16.25
2023-04-18T12:35:26.840Z,14.50
2023-04-18T12:38:29.982Z,13.50
2023-04-18T12:41:32.508Z,18.00
2023-04-18T12:44:35.218Z,15.75
2023-04-18T12:47:39.068Z,16.75
2023-04-18T12:50:41.973Z,13.50
2023-04-18T12:54:09.202Z,13.00
2023-04-18T12:57:11.953Z,15.25
2023-04-18T13:00:15.029Z,13.00
2023-04-18T13:03:18.011Z,14.00
2023-04-18T13:06:20.578Z,17.00
2023-04-18T13:09:23.300Z,14.75
2023-04-18T13:12:25.696Z,13.00
2023-04-18T13:15:28.486Z,14.50
2023-04-18T13:18:31.132Z,13.75
2023-04-18T13:21:33.867Z,13.25
2023-04-18T13:24:37.359Z,14.00
2023-04-18T13:27:42.067Z,12.25
2023-04-18T13:30:44.648Z,14.50
2023-04-18T13:33:47.529Z,15.50
2023-04-18T13:36:50.104Z,12.00
2023-04-18T13:39:53.801Z,13.00
2023-04-18T13:42:56.399Z,16.00
2023-04-18T13:45:59.166Z,12.75
2023-04-18T13:49:01.647Z,11.75
2023-04-18T13:52:04.819Z,11.00
2023-04-18T13:55:07.871Z,10.00
2023-04-18T13:58:10.938Z,11.00
2023-04-18T14:01:14.361Z,10.25
2023-04-18T14:04:17.457Z,10.50
2023-04-18T14:07:19.917Z,7.50
2023-04-18T14:10:22.977Z,8.75
2023-04-18T14:13:25.912Z,12.00
2023-04-18T14:16:32.300Z,11.75
2023-04-18T14:19:35.052Z,6.75
2023-04-18T14:22:37.846Z,8.25
2023-04-18T14:25:40.232Z,7.25
2023-04-18T14:28:42.817Z,8.00
2023-04-18T14:31:45.289Z,9.00
2023-04-18T14:34:48.096Z,7.00
2023-04-18T14:37:50.458Z,12.00
2023-04-18T14:40:53.176Z,11.00
2023-04-18T14:43:55.762Z,12.25
2023-04-18T14:46:58.512Z,12.75
2023-04-18T14:50:00.860Z,7.00
2023-04-18T14:53:04.190Z,11.00
2023-04-18T14:56:07.126Z,11.00
2023-04-18T14:59:10.237Z,12.50
2023-04-18T15:02:12.686Z,12.75
2023-04-18T15:05:15.794Z,16.25
2023-04-18T15:08:18.446Z,14.00
2023-04-18T15:11:21.234Z,14.50
2023-04-18T15:14:23.732Z,12.00
2023-04-18T15:17:26.759Z,12.50
2023-04-18T15:20:29.822Z,11.50
2023-04-18T15:23:32.702Z,15.00
2023-04-18T15:26:35.159Z,12.00
2023-04-18T15:29:38.530Z,12.25
2023-04-18T15:32:42.368Z,14.75
2023-04-18T15:35:45.954Z,12.75
2023-04-18T15:38:48.335Z,14.00
2023-04-18T15:41:54.872Z,11.00
2023-04-18T15:44:57.215Z,14.50
2023-04-18T15:47:59.965Z,14.25
2023-04-18T15:51:03.223Z,12.75
2023-04-18T15:54:06.807Z,12.25
2023-04-18T15:57:10.345Z,15.00
2023-04-18T16:00:16.433Z,13.00
2023-04-18T16:03:19.372Z,16.00
2023-04-18T16:06:23.722Z,14.75
2023-04-18T16:09:26.710Z,15.00
2023-04-18T16:12:29.886Z,16.50
2023-04-18T16:15:32.538Z,15.75
2023-04-18T16:18:35.305Z,12.25
2023-04-18T16:21:37.677Z,16.50
2023-04-18T16:24:42.177Z,15.00
2023-04-18T16:27:45.066Z,12.75
2023-04-18T16:30:48.210Z,11.75
2023-04-18T16:33:53.124Z,12.25
2023-04-18T16:36:56.373Z,16.75
2023-04-18T16:40:00.353Z,15.75
2023-04-18T16:43:05.972Z,15.50
2023-04-18T16:46:09.026Z,17.75
2023-04-18T16:49:12.220Z,14.00
2023-04-18T16:52:15.684Z,13.50
2023-04-18T16:55:19.282Z,14.75
2023-04-18T16:58:23.527Z,16.25
2023-04-18T17:01:26.394Z,17.00
2023-04-18T17:04:29.881Z,13.75
2023-04-18T17:07:33.971Z,17.75
2023-04-18T17:10:36.649Z,17.75
2023-04-18T17:13:40.503Z,18.00
2023-04-18T17:16:43.943Z,14.25
2023-04-18T17:19:47.974Z,18.50
2023-04-18T17:22:52.122Z,18.50
2023-04-18T17:25:55.327Z,22.50
2023-04-18T17:28:58.213Z,16.00
2023-04-18T17:32:01.682Z,18.00
2023-04-18T17:35:06.714Z,16.00
2023-04-18T17:38:11.680Z,15.25
2023-04-18T17:41:19.085Z,13.00
2023-04-18T17:44:23.083Z,16.25
2023-04-18T17:47:25.992Z,15.00
2023-04-18T17:50:31.022Z,17.00
2023-04-18T17:53:33.907Z,16.50
2023-04-18T17:56:37.820Z,17.00
2023-04-18T17:59:41.636Z,18.00
2023-04-18T18:02:45.137Z,16.75
2023-04-18T18:05:50.537Z,14.25
2023-04-18T18:08:54.571Z,18.00
2023-04-18T18:11:59.451Z,16.75
2023-04-18T18:15:03.695Z,18.00
2023-04-18T18:18:07.561Z,18.00
2023-04-18T18:21:12.009Z,16.25
2023-04-18T18:24:15.745Z,16.75
2023-04-18T18:27:23.465Z,18.00
2023-04-18T18:30:28.679Z,17.00
2023-04-18T18:33:32.423Z,20.75
2023-04-18T18:36:37.882Z,19.00
2023-04-18T18:39:44.945Z,20.25
2023-04-18T18:42:52.261Z,19.25
2023-04-18T18:46:03.964Z,22.75
2023-04-18T18:49:09.701Z,19.50
2023-04-18T18:52:14.498Z,22.75
2023-04-18T18:55:18.523Z,19.00
2023-04-18T18:58:30.583Z,20.50
2023-04-18T19:01:36.603Z,20.00
2023-04-18T19:04:41.758Z,19.75
2023-04-18T19:07:45.900Z,21.25
2023-04-18T19:10:51.075Z,24.25
2023-04-18T19:13:54.775Z,24.25
2023-04-18T19:16:59.326Z,21.50
2023-04-18T19:20:03.422Z,19.75
2023-04-18T19:23:10.069Z,19.25
2023-04-18T19:26:14.711Z,18.25
2023-04-18T19:29:18.914Z,27.00
2023-04-18T19:32:23.352Z,22.50
2023-04-18T19:35:28.859Z,24.75
2023-04-18T19:38:33.376Z,20.50
2023-04-18T19:41:41.418Z,22.50
2023-04-18T19:44:45.825Z,22.25
2023-04-18T19:47:51.511Z,21.25
2023-04-18T19:50:58.279Z,24.00
2023-04-18T19:54:02.441Z,22.25
2023-04-18T19:57:07.750Z,22.75
2023-04-18T20:00:13.496Z,26.75
2023-04-18T20:03:20.376Z,27.75
2023-04-18T20:06:27.466Z,24.75
2023-04-18T20:09:31.444Z,22.75
2023-04-18T20:12:36.054Z,25.00
2023-04-18T20:15:40.543Z,26.00
2023-04-18T20:23:12.601Z,20.00
2023-04-18T20:26:24.373Z,26.25
2023-04-18T20:29:29.665Z,22.00
2023-04-18T20:32:34.276Z,21.75
2023-04-18T20:35:41.631Z,24.50
2023-04-18T20:38:45.308Z,21.50
2023-04-18T20:41:55.038Z,21.25
2023-04-18T20:44:59.459Z,27.25
2023-04-18T20:48:08.266Z,20.75
2023-04-18T20:51:11.097Z,23.25
2023-04-18T20:54:16.242Z,22.50
2023-04-18T20:57:21.537Z,23.75
2023-04-18T21:00:24.840Z,22.00
2023-04-18T21:03:27.658Z,23.75
2023-04-18T21:06:31.194Z,25.25
2023-04-18T21:09:36.844Z,21.50
2023-04-18T21:12:39.581Z,22.25
2023-04-18T21:15:45.111Z,17.25
2023-04-18T21:18:47.836Z,22.75
2023-04-18T21:21:50.988Z,23.50
2023-04-18T21:24:53.756Z,21.25
2023-04-18T21:27:56.397Z,23.50
2023-04-18T21:30:59.157Z,23.00
2023-04-18T21:34:05.672Z,20.25
2023-04-18T21:37:08.381Z,21.25
2023-04-18T21:40:11.117Z,18.00
2023-04-18T21:43:13.910Z,20.50
2023-04-18T21:46:16.830Z,18.75
2023-04-18T21:49:19.627Z,16.75
2023-04-18T21:52:22.016Z,22.50
2023-04-18T21:55:24.819Z,19.25
2023-04-18T21:58:28.031Z,22.75
2023-04-18T22:01:30.890Z,23.25
2023-04-18T22:04:34.070Z,25.25
2023-04-18T22:07:46.593Z,18.00
2023-04-18T22:11:00.488Z,20.25
2023-04-18T22:14:03.322Z,15.00
2023-04-18T22:17:05.757Z,22.25
2023-04-18T22:20:09.013Z,20.50
2023-04-18T22:23:11.827Z,21.75
2023-04-18T22:26:14.564Z,18.75
2023-04-18T22:29:17.008Z,17.50
2023-04-18T22:32:19.811Z,21.50
2023-04-18T22:35:22.498Z,22.50
2023-04-18T22:38:25.509Z,19.75
2023-04-18T22:41:27.963Z,21.75
2023-04-18T22:44:30.746Z,24.25
2023-04-18T22:47:33.673Z,20.25
2023-04-18T22:50:38.032Z,16.00
2023-04-18T22:53:40.623Z,19.75
2023-04-18T22:56:43.307Z,17.50
2023-04-18T22:59:46.100Z,18.75
2023-04-18T23:02:48.936Z,20.75
2023-04-18T23:05:51.475Z,15.75
2023-04-18T23:08:54.438Z,20.50
2023-04-18T23:11:56.873Z,26.50
2023-04-18T23:14:59.650Z,16.25
2023-04-18T23:18:02.169Z,17.50
2023-04-18T23:21:05.106Z,15.75
2023-04-18T23:24:07.876Z,20.75
2023-04-18T23:27:10.944Z,13.75
2023-04-18T23:30:13.515Z,16.00
2023-04-18T23:33:19.305Z,15.75
2023-04-18T23:36:21.704Z,18.50
2023-04-18T23:39:26.342Z,16.75
2023-04-18T23:42:28.697Z,22.75
2023-04-18T23:45:31.520Z,21.25
2023-04-18T23:48:33.948Z,19.00
2023-04-18T23:51:37.812Z,14.00
2023-04-18T23:54:40.211Z,14.00
2023-04-18T23:57:43.236Z,18.00
